sensor_id;sensor_type;location;lat;lon;timestamp;pressure;altitude;pressure_sealevel;temperature;humidity
54248;BME280;40161;39.768;2.722;2022-08-01T00:00:28;101287.03;;;27.45;56.15
54248;BME280;40161;39.768;2.722;2022-08-01T00:02:54;101283.38;;;26.90;57.62
54248;BME280;40161;39.768;2.722;2022-08-01T00:05:19;101287.75;;;26.82;58.42
54248;BME280;40161;39.768;2.722;2022-08-01T00:07:45;101246.41;;;26.69;58.76
54248;BME280;40161;39.768;2.722;2022-08-01T00:10:12;101277.19;;;27.23;58.03
54248;BME280;40161;39.768;2.722;2022-08-01T00:12:39;101281.97;;;27.04;58.11
54248;BME280;40161;39.768;2.722;2022-08-01T00:15:06;101282.75;;;26.86;58.55
54248;BME280;40161;39.768;2.722;2022-08-01T00:17:32;101267.75;;;26.98;58.76
54248;BME280;40161;39.768;2.722;2022-08-01T00:19:58;101267.00;;;27.25;58.20
54248;BME280;40161;39.768;2.722;2022-08-01T00:22:23;101274.03;;;27.48;58.09
54248;BME280;40161;39.768;2.722;2022-08-01T00:24:49;101268.56;;;27.54;57.63
54248;BME280;40161;39.768;2.722;2022-08-01T00:27:15;101258.53;;;27.62;56.92
54248;BME280;40161;39.768;2.722;2022-08-01T00:29:40;101261.06;;;27.60;56.63
54248;BME280;40161;39.768;2.722;2022-08-01T00:32:06;101256.50;;;27.62;57.55
54248;BME280;40161;39.768;2.722;2022-08-01T00:34:32;101262.28;;;27.68;56.96
54248;BME280;40161;39.768;2.722;2022-08-01T00:36:57;101263.22;;;27.74;57.07
54248;BME280;40161;39.768;2.722;2022-08-01T00:39:23;101225.06;;;27.36;55.08
54248;BME280;40161;39.768;2.722;2022-08-01T00:41:48;101261.34;;;27.07;58.51
54248;BME280;40161;39.768;2.722;2022-08-01T00:44:14;101258.03;;;26.99;59.14
54248;BME280;40161;39.768;2.722;2022-08-01T00:46:40;101225.47;;;26.70;59.64
54248;BME280;40161;39.768;2.722;2022-08-01T00:49:06;101218.28;;;26.97;58.38
54248;BME280;40161;39.768;2.722;2022-08-01T00:51:32;101249.00;;;27.41;58.06
54248;BME280;40161;39.768;2.722;2022-08-01T00:53:59;101249.16;;;27.47;57.80
54248;BME280;40161;39.768;2.722;2022-08-01T00:56:26;101180.16;;;27.14;57.83
54248;BME280;40161;39.768;2.722;2022-08-01T00:58:52;101254.00;;;27.64;57.63
54248;BME280;40161;39.768;2.722;2022-08-01T01:01:18;101252.72;;;27.65;57.12
54248;BME280;40161;39.768;2.722;2022-08-01T01:03:46;101243.66;;;27.61;57.04
54248;BME280;40161;39.768;2.722;2022-08-01T01:09:02;101251.78;;;27.59;57.09
54248;BME280;40161;39.768;2.722;2022-08-01T01:11:40;101251.78;;;27.59;56.87
54248;BME280;40161;39.768;2.722;2022-08-01T01:14:13;101256.97;;;27.61;56.85
54248;BME280;40161;39.768;2.722;2022-08-01T01:16:42;101256.66;;;27.68;56.30
54248;BME280;40161;39.768;2.722;2022-08-01T01:19:15;101254.16;;;27.15;56.89
54248;BME280;40161;39.768;2.722;2022-08-01T01:24:32;101218.84;;;26.15;60.81
54248;BME280;40161;39.768;2.722;2022-08-01T01:27:11;101246.31;;;26.91;58.94
54248;BME280;40161;39.768;2.722;2022-08-01T01:29:52;101247.31;;;27.16;58.15
54248;BME280;40161;39.768;2.722;2022-08-01T01:32:32;101251.88;;;26.73;58.61
54248;BME280;40161;39.768;2.722;2022-08-01T01:35:02;101255.22;;;26.81;58.82
54248;BME280;40161;39.768;2.722;2022-08-01T01:37:31;101241.16;;;27.08;57.29
54248;BME280;40161;39.768;2.722;2022-08-01T01:39:59;101247.44;;;27.31;57.04
54248;BME280;40161;39.768;2.722;2022-08-01T01:42:27;101262.16;;;27.35;57.35
54248;BME280;40161;39.768;2.722;2022-08-01T01:44:54;101250.44;;;27.36;56.38
54248;BME280;40161;39.768;2.722;2022-08-01T01:47:20;101249.50;;;27.39;56.31
54248;BME280;40161;39.768;2.722;2022-08-01T01:49:48;101240.53;;;27.32;56.54
54248;BME280;40161;39.768;2.722;2022-08-01T01:52:16;101241.81;;;27.21;57.18
54248;BME280;40161;39.768;2.722;2022-08-01T01:54:46;101235.69;;;27.14;56.90
54248;BME280;40161;39.768;2.722;2022-08-01T01:57:14;101237.44;;;27.20;56.23
54248;BME280;40161;39.768;2.722;2022-08-01T01:59:41;101244.63;;;27.21;55.66
54248;BME280;40161;39.768;2.722;2022-08-01T02:02:08;101247.94;;;26.52;57.35
54248;BME280;40161;39.768;2.722;2022-08-01T02:04:36;101246.59;;;26.35;58.97
54248;BME280;40161;39.768;2.722;2022-08-01T02:07:03;101235.63;;;26.77;57.75
54248;BME280;40161;39.768;2.722;2022-08-01T02:09:31;101235.19;;;26.97;57.41
54248;BME280;40161;39.768;2.722;2022-08-01T02:11:59;101226.75;;;27.06;56.64
54248;BME280;40161;39.768;2.722;2022-08-01T02:14:27;101231.63;;;27.15;56.84
54248;BME280;40161;39.768;2.722;2022-08-01T02:16:54;101227.59;;;27.16;57.04
54248;BME280;40161;39.768;2.722;2022-08-01T02:19:22;101226.66;;;27.19;56.69
54248;BME280;40161;39.768;2.722;2022-08-01T02:22:00;101237.75;;;27.23;56.47
54248;BME280;40161;39.768;2.722;2022-08-01T02:24:45;101239.63;;;27.26;56.34
54248;BME280;40161;39.768;2.722;2022-08-01T02:27:16;101244.63;;;27.31;56.29
54248;BME280;40161;39.768;2.722;2022-08-01T02:29:56;101212.41;;;27.13;56.22
54248;BME280;40161;39.768;2.722;2022-08-01T02:32:27;101244.47;;;27.34;56.08
54248;BME280;40161;39.768;2.722;2022-08-01T02:34:57;101230.09;;;27.23;56.84
54248;BME280;40161;39.768;2.722;2022-08-01T02:37:25;101230.09;;;27.23;56.45
54248;BME280;40161;39.768;2.722;2022-08-01T02:39:54;101234.28;;;27.28;56.56
54248;BME280;40161;39.768;2.722;2022-08-01T02:42:20;101246.16;;;26.95;56.36
54248;BME280;40161;39.768;2.722;2022-08-01T02:44:48;101243.78;;;26.93;57.71
54248;BME280;40161;39.768;2.722;2022-08-01T02:47:15;101236.00;;;27.07;57.12
54248;BME280;40161;39.768;2.722;2022-08-01T02:49:44;101241.94;;;27.09;56.64
54248;BME280;40161;39.768;2.722;2022-08-01T02:52:13;101239.75;;;27.04;56.80
54248;BME280;40161;39.768;2.722;2022-08-01T02:54:41;101210.31;;;26.86;56.74
54248;BME280;40161;39.768;2.722;2022-08-01T02:57:08;101225.50;;;26.98;56.32
54248;BME280;40161;39.768;2.722;2022-08-01T02:59:36;101228.47;;;27.04;56.62
54248;BME280;40161;39.768;2.722;2022-08-01T03:02:04;101240.34;;;27.08;56.82
54248;BME280;40161;39.768;2.722;2022-08-01T03:04:33;101237.88;;;27.10;56.84
54248;BME280;40161;39.768;2.722;2022-08-01T03:07:00;101145.25;;;26.57;56.60
54248;BME280;40161;39.768;2.722;2022-08-01T03:09:29;101230.06;;;27.14;56.31
54248;BME280;40161;39.768;2.722;2022-08-01T03:11:59;101243.22;;;27.17;55.44
54248;BME280;40161;39.768;2.722;2022-08-01T03:14:27;101197.63;;;26.91;55.97
54248;BME280;40161;39.768;2.722;2022-08-01T03:16:56;101236.03;;;27.16;55.99
54248;BME280;40161;39.768;2.722;2022-08-01T03:19:25;101237.06;;;26.91;56.32
54248;BME280;40161;39.768;2.722;2022-08-01T03:21:53;101250.94;;;26.67;57.85
54248;BME280;40161;39.768;2.722;2022-08-01T03:24:21;101202.94;;;26.61;57.75
54248;BME280;40161;39.768;2.722;2022-08-01T03:26:48;101191.81;;;26.67;57.16
54248;BME280;40161;39.768;2.722;2022-08-01T03:29:20;101239.56;;;26.89;57.11
54248;BME280;40161;39.768;2.722;2022-08-01T03:31:48;101207.00;;;26.69;57.46
54248;BME280;40161;39.768;2.722;2022-08-01T03:34:15;101242.09;;;26.96;56.77
54248;BME280;40161;39.768;2.722;2022-08-01T03:36:49;101240.19;;;26.93;57.30
54248;BME280;40161;39.768;2.722;2022-08-01T03:39:18;101240.50;;;26.86;57.39
54248;BME280;40161;39.768;2.722;2022-08-01T03:41:51;101240.97;;;26.84;57.40
54248;BME280;40161;39.768;2.722;2022-08-01T03:44:24;101233.47;;;26.81;57.34
54248;BME280;40161;39.768;2.722;2022-08-01T03:46:59;101227.06;;;26.81;57.42
54248;BME280;40161;39.768;2.722;2022-08-01T03:49:30;101194.97;;;26.69;56.83
54248;BME280;40161;39.768;2.722;2022-08-01T03:51:56;101231.13;;;26.89;57.15
54248;BME280;40161;39.768;2.722;2022-08-01T03:54:25;101232.50;;;26.75;57.79
54248;BME280;40161;39.768;2.722;2022-08-01T03:56:53;101233.91;;;26.80;57.44
54248;BME280;40161;39.768;2.722;2022-08-01T03:59:20;101235.63;;;26.77;57.61
54248;BME280;40161;39.768;2.722;2022-08-01T04:01:47;101228.16;;;26.74;57.39
54248;BME280;40161;39.768;2.722;2022-08-01T04:04:13;101241.25;;;26.77;57.54
54248;BME280;40161;39.768;2.722;2022-08-01T04:06:40;101250.66;;;26.74;57.14
54248;BME280;40161;39.768;2.722;2022-08-01T04:09:09;101228.41;;;26.58;57.64
54248;BME280;40161;39.768;2.722;2022-08-01T04:11:35;101230.59;;;26.63;57.70
54248;BME280;40161;39.768;2.722;2022-08-01T04:14:01;101248.13;;;26.67;57.17
54248;BME280;40161;39.768;2.722;2022-08-01T04:16:26;101255.63;;;26.70;57.75
54248;BME280;40161;39.768;2.722;2022-08-01T04:18:52;101255.13;;;26.53;56.33
54248;BME280;40161;39.768;2.722;2022-08-01T04:21:20;101252.41;;;26.40;56.76
54248;BME280;40161;39.768;2.722;2022-08-01T04:23:48;101245.22;;;25.33;60.62
54248;BME280;40161;39.768;2.722;2022-08-01T04:26:15;101214.56;;;25.26;62.02
54248;BME280;40161;39.768;2.722;2022-08-01T04:28:42;101248.94;;;25.96;59.99
54248;BME280;40161;39.768;2.722;2022-08-01T04:31:10;101251.03;;;26.14;59.35
54248;BME280;40161;39.768;2.722;2022-08-01T04:33:39;101226.66;;;26.11;58.37
54248;BME280;40161;39.768;2.722;2022-08-01T04:36:06;101257.13;;;26.43;58.00
54248;BME280;40161;39.768;2.722;2022-08-01T04:38:34;101264.03;;;26.51;57.88
54248;BME280;40161;39.768;2.722;2022-08-01T04:41:02;101265.44;;;26.56;57.65
54248;BME280;40161;39.768;2.722;2022-08-01T04:43:28;101260.16;;;26.58;57.52
54248;BME280;40161;39.768;2.722;2022-08-01T04:45:54;101213.91;;;26.28;57.78
54248;BME280;40161;39.768;2.722;2022-08-01T04:48:21;101276.25;;;26.58;56.88
54248;BME280;40161;39.768;2.722;2022-08-01T04:50:49;101264.63;;;26.46;56.94
54248;BME280;40161;39.768;2.722;2022-08-01T04:53:18;101262.63;;;26.47;57.24
54248;BME280;40161;39.768;2.722;2022-08-01T04:55:47;101266.41;;;26.62;57.40
54248;BME280;40161;39.768;2.722;2022-08-01T04:58:14;101266.88;;;26.61;57.03
54248;BME280;40161;39.768;2.722;2022-08-01T05:00:40;101270.19;;;26.68;57.60
54248;BME280;40161;39.768;2.722;2022-08-01T05:03:06;101272.38;;;26.64;57.66
54248;BME280;40161;39.768;2.722;2022-08-01T05:05:32;101261.41;;;26.57;57.39
54248;BME280;40161;39.768;2.722;2022-08-01T05:07:58;101235.03;;;26.33;57.79
54248;BME280;40161;39.768;2.722;2022-08-01T05:10:23;101279.22;;;26.54;57.99
54248;BME280;40161;39.768;2.722;2022-08-01T05:12:48;101274.19;;;26.49;57.67
54248;BME280;40161;39.768;2.722;2022-08-01T05:15:14;101269.66;;;26.51;57.78
54248;BME280;40161;39.768;2.722;2022-08-01T05:17:39;101277.34;;;26.51;57.49
54248;BME280;40161;39.768;2.722;2022-08-01T05:23:29;101246.97;;;26.15;58.13
54248;BME280;40161;39.768;2.722;2022-08-01T05:25:54;101274.72;;;26.35;58.31
54248;BME280;40161;39.768;2.722;2022-08-01T05:28:20;101243.53;;;26.11;58.57
54248;BME280;40161;39.768;2.722;2022-08-01T05:30:45;101280.63;;;26.27;57.57
54248;BME280;40161;39.768;2.722;2022-08-01T05:36:32;101288.28;;;25.17;60.47
54248;BME280;40161;39.768;2.722;2022-08-01T05:38:58;101281.25;;;24.87;61.75
54248;BME280;40161;39.768;2.722;2022-08-01T05:41:23;101289.59;;;24.65;62.66
54248;BME280;40161;39.768;2.722;2022-08-01T05:43:49;101290.88;;;24.99;61.88
54248;BME280;40161;39.768;2.722;2022-08-01T05:46:15;101294.91;;;24.98;63.04
54248;BME280;40161;39.768;2.722;2022-08-01T05:48:40;101268.63;;;25.04;62.04
54248;BME280;40161;39.768;2.722;2022-08-01T05:51:06;101261.13;;;25.36;62.26
54248;BME280;40161;39.768;2.722;2022-08-01T05:53:31;101296.09;;;25.92;61.81
54248;BME280;40161;39.768;2.722;2022-08-01T05:55:59;101296.59;;;25.99;61.43
54248;BME280;40161;39.768;2.722;2022-08-01T05:58:25;101301.31;;;26.12;61.22
54248;BME280;40161;39.768;2.722;2022-08-01T06:04:12;101265.56;;;26.12;60.49
54248;BME280;40161;39.768;2.722;2022-08-01T06:06:38;101290.06;;;26.34;60.34
54248;BME280;40161;39.768;2.722;2022-08-01T06:09:03;101301.03;;;26.41;59.77
54248;BME280;40161;39.768;2.722;2022-08-01T06:11:29;101288.22;;;26.40;59.38
54248;BME280;40161;39.768;2.722;2022-08-01T06:13:54;101298.72;;;26.48;59.70
54248;BME280;40161;39.768;2.722;2022-08-01T06:16:20;101293.75;;;26.52;59.68
54248;BME280;40161;39.768;2.722;2022-08-01T06:18:45;101294.22;;;26.51;59.88
54248;BME280;40161;39.768;2.722;2022-08-01T06:21:11;101310.03;;;26.58;59.64
54248;BME280;40161;39.768;2.722;2022-08-01T06:23:37;101306.88;;;26.56;60.22
54248;BME280;40161;39.768;2.722;2022-08-01T06:26:02;101304.84;;;26.56;59.06
54248;BME280;40161;39.768;2.722;2022-08-01T06:28:28;101308.03;;;26.67;59.32
54248;BME280;40161;39.768;2.722;2022-08-01T06:30:54;101296.31;;;26.69;58.07
54248;BME280;40161;39.768;2.722;2022-08-01T06:33:20;101301.28;;;26.65;56.15
54248;BME280;40161;39.768;2.722;2022-08-01T06:35:45;101295.97;;;26.58;57.03
54248;BME280;40161;39.768;2.722;2022-08-01T06:38:11;101310.56;;;26.12;57.90
54248;BME280;40161;39.768;2.722;2022-08-01T06:40:37;101315.94;;;26.19;58.23
54248;BME280;40161;39.768;2.722;2022-08-01T06:43:03;101311.59;;;26.27;58.58
54248;BME280;40161;39.768;2.722;2022-08-01T06:45:29;101302.31;;;26.18;58.81
54248;BME280;40161;39.768;2.722;2022-08-01T06:47:54;101300.31;;;26.27;57.21
54248;BME280;40161;39.768;2.722;2022-08-01T06:50:20;101299.59;;;26.36;57.26
54248;BME280;40161;39.768;2.722;2022-08-01T06:52:45;101305.91;;;26.49;57.67
54248;BME280;40161;39.768;2.722;2022-08-01T06:55:11;101289.41;;;26.61;59.24
54248;BME280;40161;39.768;2.722;2022-08-01T06:57:36;101307.41;;;26.72;57.77
54248;BME280;40161;39.768;2.722;2022-08-01T07:00:10;101299.44;;;26.71;57.04
54248;BME280;40161;39.768;2.722;2022-08-01T07:02:36;101308.81;;;26.77;57.11
54248;BME280;40161;39.768;2.722;2022-08-01T07:05:02;101301.97;;;26.87;57.71
54248;BME280;40161;39.768;2.722;2022-08-01T07:07:29;101306.38;;;26.97;58.04
54248;BME280;40161;39.768;2.722;2022-08-01T07:09:55;101313.13;;;27.09;57.74
54248;BME280;40161;39.768;2.722;2022-08-01T07:12:21;101307.97;;;27.08;57.80
54248;BME280;40161;39.768;2.722;2022-08-01T07:14:46;101276.00;;;26.83;55.44
54248;BME280;40161;39.768;2.722;2022-08-01T07:17:12;101310.34;;;27.18;55.78
54248;BME280;40161;39.768;2.722;2022-08-01T07:19:38;101303.91;;;27.09;54.92
54248;BME280;40161;39.768;2.722;2022-08-01T07:22:03;101312.53;;;27.14;55.75
54248;BME280;40161;39.768;2.722;2022-08-01T07:24:29;101313.91;;;27.10;54.96
54248;BME280;40161;39.768;2.722;2022-08-01T07:26:55;101323.19;;;27.19;53.79
54248;BME280;40161;39.768;2.722;2022-08-01T07:29:25;101318.81;;;27.28;54.14
54248;BME280;40161;39.768;2.722;2022-08-01T07:31:52;101310.38;;;27.28;53.39
54248;BME280;40161;39.768;2.722;2022-08-01T07:34:18;101313.34;;;27.33;53.09
54248;BME280;40161;39.768;2.722;2022-08-01T07:36:43;101320.22;;;27.41;52.85
54248;BME280;40161;39.768;2.722;2022-08-01T07:39:09;101324.94;;;27.44;52.83
54248;BME280;40161;39.768;2.722;2022-08-01T07:41:35;101322.28;;;27.50;53.12
54248;BME280;40161;39.768;2.722;2022-08-01T07:44:00;101336.84;;;27.58;53.67
54248;BME280;40161;39.768;2.722;2022-08-01T07:46:26;101337.94;;;27.60;53.37
54248;BME280;40161;39.768;2.722;2022-08-01T07:48:51;101337.63;;;27.67;53.87
54248;BME280;40161;39.768;2.722;2022-08-01T07:51:17;101337.75;;;27.73;53.22
54248;BME280;40161;39.768;2.722;2022-08-01T07:53:43;101321.78;;;27.70;54.26
54248;BME280;40161;39.768;2.722;2022-08-01T07:56:08;101326.34;;;27.77;54.61
54248;BME280;40161;39.768;2.722;2022-08-01T07:58:34;101344.38;;;27.88;53.46
54248;BME280;40161;39.768;2.722;2022-08-01T08:01:00;101340.28;;;27.99;52.90
54248;BME280;40161;39.768;2.722;2022-08-01T08:03:26;101344.34;;;27.98;53.53
54248;BME280;40161;39.768;2.722;2022-08-01T08:05:51;101345.38;;;28.28;55.91
54248;BME280;40161;39.768;2.722;2022-08-01T08:08:17;101335.50;;;28.32;56.75
54248;BME280;40161;39.768;2.722;2022-08-01T08:10:43;101305.44;;;28.11;57.88
54248;BME280;40161;39.768;2.722;2022-08-01T08:13:09;101317.38;;;28.15;57.52
54248;BME280;40161;39.768;2.722;2022-08-01T08:15:34;101336.44;;;28.29;58.03
54248;BME280;40161;39.768;2.722;2022-08-01T08:18:00;101332.84;;;28.29;58.92
54248;BME280;40161;39.768;2.722;2022-08-01T08:20:26;101341.44;;;28.34;57.88
54248;BME280;40161;39.768;2.722;2022-08-01T08:22:53;101343.59;;;28.49;59.00
54248;BME280;40161;39.768;2.722;2022-08-01T08:25:19;101339.38;;;28.53;60.46
54248;BME280;40161;39.768;2.722;2022-08-01T08:27:45;101344.84;;;28.57;60.84
54248;BME280;40161;39.768;2.722;2022-08-01T08:30:12;101302.28;;;28.27;62.37
54248;BME280;40161;39.768;2.722;2022-08-01T08:32:38;101342.66;;;28.52;62.29
54248;BME280;40161;39.768;2.722;2022-08-01T08:35:05;101349.41;;;28.54;62.19
54248;BME280;40161;39.768;2.722;2022-08-01T08:37:31;101329.22;;;28.47;61.58
54248;BME280;40161;39.768;2.722;2022-08-01T08:39:57;101347.34;;;28.55;61.99
54248;BME280;40161;39.768;2.722;2022-08-01T08:42:22;101345.91;;;28.59;62.04
54248;BME280;40161;39.768;2.722;2022-08-01T08:44:48;101351.56;;;28.59;61.53
54248;BME280;40161;39.768;2.722;2022-08-01T08:47:14;101347.66;;;28.57;61.68
54248;BME280;40161;39.768;2.722;2022-08-01T08:49:42;101355.13;;;28.69;62.59
54248;BME280;40161;39.768;2.722;2022-08-01T08:52:10;101346.81;;;28.75;60.45
54248;BME280;40161;39.768;2.722;2022-08-01T08:54:37;101349.94;;;28.77;61.08
54248;BME280;40161;39.768;2.722;2022-08-01T08:57:03;101352.59;;;28.80;60.05
54248;BME280;40161;39.768;2.722;2022-08-01T08:59:31;101352.25;;;28.88;58.65
54248;BME280;40161;39.768;2.722;2022-08-01T09:01:57;101353.31;;;28.90;61.17
54248;BME280;40161;39.768;2.722;2022-08-01T09:04:24;101350.59;;;28.96;59.93
54248;BME280;40161;39.768;2.722;2022-08-01T09:06:50;101307.69;;;28.82;59.44
54248;BME280;40161;39.768;2.722;2022-08-01T09:09:16;101345.22;;;29.07;59.30
54248;BME280;40161;39.768;2.722;2022-08-01T09:11:42;101351.00;;;29.13;60.04
54248;BME280;40161;39.768;2.722;2022-08-01T09:14:13;101348.31;;;29.18;58.76
54248;BME280;40161;39.768;2.722;2022-08-01T09:16:44;101344.50;;;29.21;60.19
54248;BME280;40161;39.768;2.722;2022-08-01T09:19:15;101345.00;;;29.20;60.43
54248;BME280;40161;39.768;2.722;2022-08-01T09:22:03;101317.38;;;28.91;60.55
54248;BME280;40161;39.768;2.722;2022-08-01T09:24:30;101318.16;;;28.91;61.31
54248;BME280;40161;39.768;2.722;2022-08-01T09:26:56;101352.16;;;29.06;61.37
54248;BME280;40161;39.768;2.722;2022-08-01T09:29:27;101346.19;;;29.04;61.00
54248;BME280;40161;39.768;2.722;2022-08-01T09:31:53;101360.28;;;29.13;61.81
54248;BME280;40161;39.768;2.722;2022-08-01T09:34:27;101365.28;;;29.18;62.54
54248;BME280;40161;39.768;2.722;2022-08-01T09:36:58;101367.91;;;29.22;61.28
54248;BME280;40161;39.768;2.722;2022-08-01T09:39:26;101351.66;;;29.07;61.56
54248;BME280;40161;39.768;2.722;2022-08-01T09:41:56;101338.34;;;29.08;61.48
54248;BME280;40161;39.768;2.722;2022-08-01T09:44:42;101364.78;;;29.20;60.82
54248;BME280;40161;39.768;2.722;2022-08-01T09:47:09;101364.19;;;29.16;61.75
54248;BME280;40161;39.768;2.722;2022-08-01T09:49:37;101305.28;;;28.90;61.09
54248;BME280;40161;39.768;2.722;2022-08-01T09:52:14;101360.13;;;29.31;60.41
54248;BME280;40161;39.768;2.722;2022-08-01T09:54:41;101364.72;;;29.29;60.47
54248;BME280;40161;39.768;2.722;2022-08-01T09:57:10;101353.47;;;29.44;59.92
54248;BME280;40161;39.768;2.722;2022-08-01T09:59:38;101349.44;;;29.36;59.79
54248;BME280;40161;39.768;2.722;2022-08-01T10:02:06;101362.53;;;29.48;58.77
54248;BME280;40161;39.768;2.722;2022-08-01T10:04:31;101355.78;;;29.45;59.14
54248;BME280;40161;39.768;2.722;2022-08-01T10:07:07;101355.56;;;29.34;60.86
54248;BME280;40161;39.768;2.722;2022-08-01T10:09:36;101339.69;;;29.37;60.45
54248;BME280;40161;39.768;2.722;2022-08-01T10:12:03;101348.31;;;29.42;60.63
54248;BME280;40161;39.768;2.722;2022-08-01T10:14:30;101348.59;;;29.44;61.39
54248;BME280;40161;39.768;2.722;2022-08-01T10:16:58;101346.66;;;29.50;61.12
54248;BME280;40161;39.768;2.722;2022-08-01T10:19:27;101348.00;;;29.64;61.09
54248;BME280;40161;39.768;2.722;2022-08-01T10:21:54;101336.53;;;29.58;60.19
54248;BME280;40161;39.768;2.722;2022-08-01T10:24:21;101329.38;;;29.48;61.08
54248;BME280;40161;39.768;2.722;2022-08-01T10:26:48;101342.03;;;29.62;59.49
54248;BME280;40161;39.768;2.722;2022-08-01T10:29:19;101336.09;;;29.75;59.28
54248;BME280;40161;39.768;2.722;2022-08-01T10:31:48;101342.16;;;29.83;58.96
54248;BME280;40161;39.768;2.722;2022-08-01T10:34:15;101342.06;;;29.77;58.76
54248;BME280;40161;39.768;2.722;2022-08-01T10:36:47;101341.25;;;29.76;58.87
54248;BME280;40161;39.768;2.722;2022-08-01T10:39:13;101323.25;;;29.74;58.65
54248;BME280;40161;39.768;2.722;2022-08-01T10:41:40;101343.75;;;29.84;57.66
54248;BME280;40161;39.768;2.722;2022-08-01T10:44:09;101336.63;;;29.88;56.75
54248;BME280;40161;39.768;2.722;2022-08-01T10:46:38;101332.31;;;29.93;56.97
54248;BME280;40161;39.768;2.722;2022-08-01T10:49:11;101343.25;;;30.00;56.92
54248;BME280;40161;39.768;2.722;2022-08-01T10:51:39;101336.03;;;29.99;56.79
54248;BME280;40161;39.768;2.722;2022-08-01T10:54:07;101326.00;;;29.98;56.37
54248;BME280;40161;39.768;2.722;2022-08-01T10:56:45;101327.72;;;30.10;56.76
54248;BME280;40161;39.768;2.722;2022-08-01T10:59:21;101333.38;;;30.10;55.98
54248;BME280;40161;39.768;2.722;2022-08-01T11:02:04;101323.88;;;30.22;54.13
54248;BME280;40161;39.768;2.722;2022-08-01T11:07:17;101329.31;;;30.26;54.26
54248;BME280;40161;39.768;2.722;2022-08-01T11:09:47;101314.78;;;30.33;53.01
54248;BME280;40161;39.768;2.722;2022-08-01T11:12:16;101308.13;;;30.36;52.16
54248;BME280;40161;39.768;2.722;2022-08-01T11:17:38;101325.78;;;30.46;52.19
54248;BME280;40161;39.768;2.722;2022-08-01T11:20:32;101329.97;;;30.50;51.13
54248;BME280;40161;39.768;2.722;2022-08-01T11:30:54;101314.47;;;30.46;51.88
54248;BME280;40161;39.768;2.722;2022-08-01T11:38:42;101313.44;;;30.64;52.56
54248;BME280;40161;39.768;2.722;2022-08-01T11:41:31;101306.50;;;30.65;52.34
54248;BME280;40161;39.768;2.722;2022-08-01T11:46:55;101303.44;;;30.68;52.08
54248;BME280;40161;39.768;2.722;2022-08-01T11:54:39;101262.94;;;30.62;51.66
54248;BME280;40161;39.768;2.722;2022-08-01T11:57:07;101295.34;;;30.76;52.30
54248;BME280;40161;39.768;2.722;2022-08-01T11:59:53;101294.56;;;30.76;52.68
54248;BME280;40161;39.768;2.722;2022-08-01T12:02:26;101261.91;;;30.60;52.30
54248;BME280;40161;39.768;2.722;2022-08-01T12:04:56;101281.09;;;30.70;52.37
54248;BME280;40161;39.768;2.722;2022-08-01T12:07:23;101259.84;;;30.60;52.13
54248;BME280;40161;39.768;2.722;2022-08-01T12:10:06;101273.53;;;30.82;52.04
54248;BME280;40161;39.768;2.722;2022-08-01T12:12:35;101271.47;;;30.83;51.87
54248;BME280;40161;39.768;2.722;2022-08-01T12:15:05;101271.69;;;30.79;52.31
54248;BME280;40161;39.768;2.722;2022-08-01T12:20:04;101274.44;;;30.73;52.23
54248;BME280;40161;39.768;2.722;2022-08-01T12:22:30;101273.59;;;30.67;51.89
54248;BME280;40161;39.768;2.722;2022-08-01T12:25:05;101272.03;;;30.66;52.23
54248;BME280;40161;39.768;2.722;2022-08-01T12:27:31;101264.19;;;30.76;50.47
54248;BME280;40161;39.768;2.722;2022-08-01T12:29:58;101269.56;;;30.74;51.23
54248;BME280;40161;39.768;2.722;2022-08-01T12:32:30;101264.38;;;30.72;51.17
54248;BME280;40161;39.768;2.722;2022-08-01T12:35:00;101274.06;;;30.81;51.48
54248;BME280;40161;39.768;2.722;2022-08-01T12:37:26;101245.72;;;30.66;50.25
54248;BME280;40161;39.768;2.722;2022-08-01T12:39:52;101252.78;;;30.70;51.15
54248;BME280;40161;39.768;2.722;2022-08-01T12:42:18;101255.22;;;30.78;51.33
54248;BME280;40161;39.768;2.722;2022-08-01T12:44:47;101236.25;;;30.69;51.26
54248;BME280;40161;39.768;2.722;2022-08-01T12:47:15;101260.66;;;30.81;50.72
54248;BME280;40161;39.768;2.722;2022-08-01T12:49:42;101265.25;;;30.79;50.95
54248;BME280;40161;39.768;2.722;2022-08-01T12:52:09;101253.34;;;30.74;50.52
54248;BME280;40161;39.768;2.722;2022-08-01T12:55:01;101264.41;;;30.93;51.81
54248;BME280;40161;39.768;2.722;2022-08-01T12:57:27;101268.22;;;31.10;50.89
54248;BME280;40161;39.768;2.722;2022-08-01T12:59:53;101253.91;;;31.19;50.66
54248;BME280;40161;39.768;2.722;2022-08-01T13:02:34;101250.41;;;31.30;51.40
54248;BME280;40161;39.768;2.722;2022-08-01T13:05:00;101250.31;;;31.39;51.42
54248;BME280;40161;39.768;2.722;2022-08-01T13:07:48;101232.34;;;31.28;52.34
54248;BME280;40161;39.768;2.722;2022-08-01T13:10:24;101210.88;;;31.21;52.23
54248;BME280;40161;39.768;2.722;2022-08-01T13:12:52;101248.34;;;31.51;52.88
54248;BME280;40161;39.768;2.722;2022-08-01T13:15:28;101265.09;;;31.49;52.70
54248;BME280;40161;39.768;2.722;2022-08-01T13:17:57;101245.69;;;31.42;52.32
54248;BME280;40161;39.768;2.722;2022-08-01T13:20:25;101265.44;;;31.57;52.22
54248;BME280;40161;39.768;2.722;2022-08-01T13:22:51;101269.78;;;31.52;52.44
54248;BME280;40161;39.768;2.722;2022-08-01T13:25:17;101219.25;;;31.30;52.32
54248;BME280;40161;39.768;2.722;2022-08-01T13:27:43;101255.84;;;31.54;52.48
54248;BME280;40161;39.768;2.722;2022-08-01T13:30:15;101202.66;;;31.23;53.39
54248;BME280;40161;39.768;2.722;2022-08-01T13:32:42;101261.09;;;31.61;53.47
54248;BME280;40161;39.768;2.722;2022-08-01T13:35:12;101273.78;;;31.66;53.11
54248;BME280;40161;39.768;2.722;2022-08-01T13:37:39;101262.91;;;31.64;53.98
54248;BME280;40161;39.768;2.722;2022-08-01T13:40:07;101261.47;;;31.75;54.25